Time;durP1;ratioP1;P1;durP2;ratioP2;P2;SDS_P1;SDS_P2;PMS_P1;PMS_P2;Temp;Humidity;BMP_temperature;BMP_pressure;BME280_temperature;BME280_humidity;BME280_pressure;Samples;Min_cycle;Max_cycle;Signal;HPM_P1;HPM_P2
2021/05/22 00:00:47;;;;;;;11.52;3.08;;;;;;;6.39;87.07;100006.25;5017654;28;20913;-81
2021/05/22 00:03:13;;;;;;;5.50;2.17;;;;;;;6.40;86.47;100010.59;5009638;28;20025;-83
2021/05/22 00:05:38;;;;;;;6.88;2.08;;;;;;;6.38;86.98;100021.47;5026367;28;20477;-83
2021/05/22 00:08:04;;;;;;;7.72;2.35;;;;;;;6.32;86.74;100008.75;5009483;28;20025;-84
2021/05/22 00:10:30;;;;;;;6.40;2.25;;;;;;;6.32;86.71;100018.59;5014858;28;20527;-84
2021/05/22 00:12:55;;;;;;;7.53;2.10;;;;;;;6.32;87.12;100037.28;5013224;28;20032;-84
2021/05/22 00:15:21;;;;;;;5.25;2.30;;;;;;;6.22;87.22;100021.47;5032557;28;20473;-84
2021/05/22 00:17:46;;;;;;;9.68;2.50;;;;;;;6.19;87.03;100024.44;5023805;28;20025;-83
2021/05/22 00:20:13;;;;;;;7.72;2.15;;;;;;;6.16;87.69;100027.44;5032359;28;20037;-85
2021/05/22 00:22:40;;;;;;;12.70;2.55;;;;;;;6.11;87.57;100027.94;5029951;28;20048;-84
2021/05/22 00:25:06;;;;;;;8.90;1.88;;;;;;;6.07;87.78;100037.28;5031380;28;20045;-85
2021/05/22 00:27:32;;;;;;;3.83;1.67;;;;;;;6.06;87.77;100030.28;5028112;28;20042;-84
2021/05/22 00:29:57;;;;;;;5.90;2.15;;;;;;;6.04;87.64;100036.78;5030187;28;20037;-84
2021/05/22 00:32:22;;;;;;;9.23;2.50;;;;;;;5.97;87.82;100039.25;5006773;28;20089;-84
2021/05/22 00:34:48;;;;;;;6.97;2.05;;;;;;;5.97;87.90;100035.75;5030067;28;20018;-85
2021/05/22 00:37:13;;;;;;;8.07;2.08;;;;;;;5.88;88.15;100042.88;5031499;28;20049;-84
2021/05/22 00:39:38;;;;;;;10.80;2.25;;;;;;;5.90;88.12;100046.19;5010440;28;20029;-83
2021/05/22 00:42:05;;;;;;;7.45;2.28;;;;;;;5.90;88.58;100047.06;5029394;28;20155;-85
2021/05/22 00:44:34;;;;;;;6.75;1.88;;;;;;;5.91;88.70;100050.56;5031959;28;20025;-83
2021/05/22 00:47:00;;;;;;;6.05;2.20;;;;;;;5.86;88.40;100052.88;5016485;28;20502;-85
2021/05/22 00:49:26;;;;;;;5.80;1.98;;;;;;;5.85;88.68;100051.22;5019552;28;20026;-85
2021/05/22 00:51:51;;;;;;;7.18;1.98;;;;;;;5.84;88.71;100049.53;5037127;28;20014;-84
2021/05/22 00:54:17;;;;;;;8.90;2.28;;;;;;;5.54;88.46;100014.44;5014030;28;20100;-85
2021/05/22 00:56:44;;;;;;;8.32;2.30;;;;;;;5.54;88.60;100025.09;5031446;28;20033;-83
2021/05/22 00:59:13;;;;;;;12.70;2.80;;;;;;;5.80;88.66;100064.22;5011595;28;20041;-84
2021/05/22 01:01:39;;;;;;;9.85;2.67;;;;;;;5.63;88.63;100041.97;5005634;28;20026;-85
2021/05/22 01:04:04;;;;;;;12.20;2.47;;;;;;;5.67;88.90;100054.81;5037117;28;20083;-83
2021/05/22 01:06:32;;;;;;;10.43;2.47;;;;;;;5.75;89.13;100066.53;5037531;28;20048;-83
2021/05/22 01:09:01;;;;;;;8.13;2.17;;;;;;;5.67;88.96;100051.31;5027998;28;20052;-83
2021/05/22 01:11:34;;;;;;;8.85;2.40;;;;;;;5.55;88.96;100042.75;5016386;28;20029;-84
2021/05/22 01:14:03;;;;;;;8.43;2.70;;;;;;;5.63;88.52;100066.78;5032630;28;20057;-86
2021/05/22 01:16:29;;;;;;;7.78;2.38;;;;;;;5.56;88.72;100060.44;5030835;28;20278;-84
2021/05/22 01:18:57;;;;;;;4.05;1.75;;;;;;;5.52;88.97;100061.75;5013695;28;20033;-84
2021/05/22 01:21:22;;;;;;;4.13;1.92;;;;;;;5.42;89.22;100067.19;5016129;28;20499;-84
2021/05/22 01:23:56;;;;;;;4.55;1.92;;;;;;;5.31;88.93;100048.81;5016373;28;20057;-84
2021/05/22 01:26:22;;;;;;;5.50;1.98;;;;;;;5.44;89.15;100075.88;5015855;28;20124;-83
2021/05/22 01:28:47;;;;;;;7.43;2.20;;;;;;;5.18;88.99;100051.09;5010585;28;20039;-85
2021/05/22 01:31:13;;;;;;;11.85;2.15;;;;;;;5.37;89.50;100079.34;5016407;28;20025;-84
2021/05/22 01:33:39;;;;;;;11.48;2.28;;;;;;;5.26;89.35;100054.63;5019598;28;20033;-83
2021/05/22 01:36:05;;;;;;;7.35;2.05;;;;;;;5.29;88.95;100073.00;5023695;28;20021;-84
2021/05/22 01:38:30;;;;;;;7.40;2.25;;;;;;;5.24;89.40;100064.63;5029644;28;20674;-84
2021/05/22 01:40:56;;;;;;;6.55;2.53;;;;;;;5.23;89.06;100057.59;5027848;28;20029;-84
2021/05/22 01:43:21;;;;;;;9.13;2.30;;;;;;;5.20;89.08;100060.59;5028978;28;20087;-84
2021/05/22 01:45:49;;;;;;;8.95;2.92;;;;;;;5.28;88.84;100073.13;5023991;28;20120;-83
2021/05/22 01:48:20;;;;;;;11.23;2.88;;;;;;;5.27;89.24;100076.81;5013029;28;20059;-85
2021/05/22 01:50:50;;;;;;;6.60;2.55;;;;;;;5.26;88.82;100078.59;5011942;28;20033;-84
2021/05/22 01:53:17;;;;;;;5.70;2.25;;;;;;;5.21;88.67;100080.09;5029734;28;20100;-83
2021/05/22 01:55:45;;;;;;;25.75;2.45;;;;;;;5.13;88.53;100083.53;5013828;28;20719;-84
2021/05/22 01:58:11;;;;;;;8.32;2.50;;;;;;;5.03;88.65;100069.50;5026506;28;20746;-84
2021/05/22 02:00:37;;;;;;;5.13;1.90;;;;;;;5.00;89.20;100069.78;5004393;28;20022;-85
2021/05/22 02:03:33;;;;;;;9.00;1.88;;;;;;;5.02;89.00;100081.13;5013176;28;20413;-85
2021/05/22 02:06:01;;;;;;;7.43;2.08;;;;;;;4.97;89.31;100080.75;5026858;28;21776;-85
2021/05/22 02:08:28;;;;;;;8.60;2.10;;;;;;;4.96;88.65;100093.25;5015748;28;20032;-84
2021/05/22 02:10:54;;;;;;;6.18;1.77;;;;;;;4.89;89.01;100072.72;5010594;28;20054;-85
2021/05/22 02:13:20;;;;;;;5.53;1.90;;;;;;;4.88;88.66;100069.22;5029796;28;20045;-83
2021/05/22 02:15:57;;;;;;;7.82;2.15;;;;;;;5.00;88.75;100089.31;5013810;28;20017;-84
2021/05/22 02:18:23;;;;;;;5.88;1.67;;;;;;;4.99;88.55;100082.28;5028328;28;20026;-84
2021/05/22 02:20:52;;;;;;;6.30;2.08;;;;;;;4.89;88.99;100078.06;5030535;28;20071;-84
2021/05/22 02:23:17;;;;;;;7.95;1.70;;;;;;;4.87;88.65;100080.03;5016041;28;20100;-84
2021/05/22 02:25:43;;;;;;;9.27;2.00;;;;;;;4.87;88.38;100088.00;5029788;28;20052;-85
2021/05/22 02:28:09;;;;;;;7.15;2.20;;;;;;;4.79;88.97;100087.00;5013668;28;20125;-85
2021/05/22 02:30:36;;;;;;;5.90;2.30;;;;;;;4.68;88.79;100071.22;5004467;28;20022;-85
2021/05/22 02:33:03;;;;;;;9.18;2.13;;;;;;;4.73;89.39;100076.94;5014862;28;20070;-84
2021/05/22 02:35:29;;;;;;;7.05;1.83;;;;;;;4.69;89.14;100080.09;5028711;28;20082;-84
2021/05/22 02:37:55;;;;;;;4.95;1.73;;;;;;;4.70;88.92;100082.56;5013109;28;20075;-84
2021/05/22 02:40:24;;;;;;;3.58;2.03;;;;;;;4.71;88.80;100078.94;5025389;28;20085;-85
2021/05/22 02:42:59;;;;;;;9.02;2.00;;;;;;;4.72;88.57;100091.25;5009062;28;20032;-84
2021/05/22 02:45:26;;;;;;;6.47;1.60;;;;;;;4.64;88.97;100083.19;5013631;28;20029;-83
2021/05/22 02:47:54;;;;;;;13.38;2.08;;;;;;;4.64;88.54;100093.84;5012693;28;20032;-84
2021/05/22 02:50:21;;;;;;;7.47;2.22;;;;;;;4.62;88.75;100085.16;5011684;28;20048;-84
2021/05/22 02:52:47;;;;;;;5.55;1.50;;;;;;;4.62;88.20;100077.19;5012691;28;20108;-84
2021/05/22 02:55:12;;;;;;;3.22;1.55;;;;;;;4.47;88.66;100057.41;5029206;28;20136;-84
2021/05/22 02:57:39;;;;;;;4.15;1.60;;;;;;;4.67;88.23;100088.22;5025632;28;20862;-83
2021/05/22 03:00:05;;;;;;;9.40;2.10;;;;;;;4.60;88.40;100085.34;5018413;28;20029;-84
2021/05/22 03:02:33;;;;;;;5.07;1.70;;;;;;;4.61;88.43;100086.19;5011451;28;20029;-83
2021/05/22 03:04:59;;;;;;;6.47;1.85;;;;;;;4.59;88.08;100080.16;5014151;28;20456;-84
2021/05/22 03:07:24;;;;;;;4.35;2.05;;;;;;;4.55;88.10;100074.31;5011170;28;20076;-83
2021/05/22 03:09:49;;;;;;;5.88;1.67;;;;;;;4.57;87.84;100090.13;5021101;28;20021;-82
2021/05/22 03:12:19;;;;;;;9.20;1.90;;;;;;;4.55;88.13;100100.94;5010702;28;20061;-85
2021/05/22 03:14:44;;;;;;;7.47;2.35;;;;;;;4.46;87.89;100101.00;5020041;28;20026;-85
2021/05/22 03:17:10;;;;;;;4.65;1.52;;;;;;;4.32;87.67;100089.06;5025948;28;20101;-84
2021/05/22 03:19:35;;;;;;;7.07;1.65;;;;;;;4.43;88.05;100110.13;5018889;28;20017;-84
2021/05/22 03:22:01;;;;;;;7.95;1.92;;;;;;;4.37;88.31;100103.59;5011973;28;20029;-83
2021/05/22 03:24:26;;;;;;;7.38;1.88;;;;;;;4.36;88.40;100109.06;5019065;28;20040;-85
2021/05/22 03:26:53;;;;;;;7.18;1.80;;;;;;;4.24;88.53;100084.50;5013902;28;20079;-84
2021/05/22 03:29:18;;;;;;;7.90;1.90;;;;;;;4.40;88.80;100115.75;5023042;28;20021;-85
2021/05/22 03:31:44;;;;;;;10.75;2.00;;;;;;;4.37;88.58;100108.91;5025776;28;20025;-85
2021/05/22 03:34:09;;;;;;;8.60;2.38;;;;;;;4.14;88.05;100068.59;5024003;28;20345;-84
2021/05/22 03:36:35;;;;;;;3.85;1.52;;;;;;;4.44;88.28;100108.31;5012581;28;20480;-84
2021/05/22 03:39:00;;;;;;;6.03;1.60;;;;;;;4.39;88.42;100096.31;5026695;28;20155;-83
2021/05/22 03:41:25;;;;;;;5.20;1.58;;;;;;;4.38;87.91;100104.44;5014290;28;20033;-84
2021/05/22 03:43:51;;;;;;;5.43;1.98;;;;;;;4.33;87.90;100102.22;5012485;28;20025;-84
2021/05/22 03:46:16;;;;;;;5.75;1.65;;;;;;;4.25;87.53;100088.84;5012135;28;20024;-83
2021/05/22 03:48:42;;;;;;;3.30;1.20;;;;;;;4.21;87.54;100110.56;5005323;28;20049;-85
2021/05/22 03:51:07;;;;;;;2.75;1.60;;;;;;;4.19;87.95;100116.06;5031664;28;20113;-84
2021/05/22 03:53:32;;;;;;;4.18;1.40;;;;;;;4.15;87.96;100114.66;5029179;28;20025;-84
2021/05/22 03:55:58;;;;;;;7.38;1.90;;;;;;;4.16;88.04;100133.16;5009504;28;20083;-85
2021/05/22 03:58:23;;;;;;;8.43;2.38;;;;;;;4.13;87.91;100130.81;5010700;28;20021;-84
2021/05/22 04:00:49;;;;;;;8.65;2.30;;;;;;;4.14;88.09;100140.44;5025459;28;20108;-84
2021/05/22 04:03:14;;;;;;;8.10;1.77;;;;;;;4.01;87.78;100124.00;5017498;28;20473;-84
2021/05/22 04:05:40;;;;;;;3.45;1.40;;;;;;;3.97;87.75;100131.44;5018895;28;20017;-84
2021/05/22 04:08:05;;;;;;;3.22;1.42;;;;;;;3.81;87.83;100117.09;5014983;28;20695;-84
2021/05/22 04:10:31;;;;;;;7.10;1.90;;;;;;;3.85;88.16;100137.13;5025831;28;20018;-84
2021/05/22 04:12:56;;;;;;;8.35;1.67;;;;;;;3.77;88.52;100127.22;5027363;28;20053;-84
2021/05/22 04:15:22;;;;;;;4.32;1.60;;;;;;;3.81;88.31;100139.25;5014274;28;20076;-83
2021/05/22 04:17:47;;;;;;;8.68;2.00;;;;;;;3.72;88.70;100129.47;5014528;28;20021;-82
2021/05/22 04:20:13;;;;;;;5.57;2.30;;;;;;;3.72;88.56;100135.63;5030495;28;20035;-85
2021/05/22 04:22:39;;;;;;;11.23;2.20;;;;;;;3.66;88.61;100128.25;5012662;28;20029;-84
2021/05/22 04:25:04;;;;;;;7.40;2.00;;;;;;;3.73;88.53;100141.78;5012675;28;20444;-83
2021/05/22 04:27:30;;;;;;;7.78;1.60;;;;;;;3.65;88.17;100146.97;5011574;28;20041;-84
2021/05/22 04:29:55;;;;;;;5.05;1.55;;;;;;;3.57;88.15;100141.56;5032527;28;20021;-83
2021/05/22 04:32:21;;;;;;;6.45;2.00;;;;;;;3.48;88.47;100128.16;5028014;28;20025;-85
2021/05/22 04:34:46;;;;;;;4.38;1.67;;;;;;;3.33;88.34;100113.66;5026127;28;20025;-85
2021/05/22 04:37:11;;;;;;;4.43;1.45;;;;;;;3.43;88.61;100141.03;5029173;28;20029;-83
2021/05/22 04:39:37;;;;;;;4.90;1.80;;;;;;;3.44;89.69;100153.38;5011163;28;20037;-85
2021/05/22 04:42:03;;;;;;;4.35;1.80;;;;;;;3.41;89.19;100158.13;5033280;28;20041;-83
2021/05/22 04:44:29;;;;;;;5.95;1.42;;;;;;;3.41;89.52;100158.94;5021091;28;20017;-84
2021/05/22 04:46:54;;;;;;;2.53;1.20;;;;;;;3.45;89.68;100159.53;5009394;28;20489;-84
2021/05/22 04:49:19;;;;;;;5.07;1.60;;;;;;;3.48;89.74;100160.06;5023028;28;20025;-84
2021/05/22 04:51:45;;;;;;;3.55;1.20;;;;;;;3.37;89.36;100135.50;5028160;28;20032;-83
2021/05/22 04:54:11;;;;;;;4.65;1.83;;;;;;;3.59;89.57;100166.19;5034159;28;20033;-84
2021/05/22 04:56:36;;;;;;;6.80;1.52;;;;;;;3.63;89.65;100168.41;5031301;28;20021;-83
2021/05/22 04:59:02;;;;;;;5.45;2.35;;;;;;;3.60;89.52;100158.06;5010028;28;20025;-83
2021/05/22 05:01:28;;;;;;;4.50;2.47;;;;;;;3.63;89.53;100163.09;5026974;28;20064;-85
2021/05/22 05:03:54;;;;;;;3.97;2.25;;;;;;;3.49;89.41;100140.50;5029372;28;20049;-84
2021/05/22 05:06:19;;;;;;;5.80;2.30;;;;;;;3.69;88.94;100167.00;5014479;28;20466;-84
2021/05/22 05:08:45;;;;;;;9.70;2.50;;;;;;;3.66;88.89;100165.47;5008666;28;20472;-84
2021/05/22 05:11:11;;;;;;;6.63;2.50;;;;;;;3.66;89.19;100154.81;5003613;28;20032;-84
2021/05/22 05:13:36;;;;;;;6.50;2.45;;;;;;;3.79;89.12;100177.59;5025481;28;20057;-85
2021/05/22 05:16:02;;;;;;;9.25;3.03;;;;;;;3.82;89.18;100178.13;5013284;28;20048;-84
2021/05/22 05:18:27;;;;;;;10.70;3.75;;;;;;;3.83;89.04;100174.47;5031677;28;20480;-85
2021/05/22 05:20:53;;;;;;;7.35;2.30;;;;;;;3.86;89.47;100173.34;5010647;28;20032;-84
2021/05/22 05:23:18;;;;;;;5.97;2.65;;;;;;;3.85;89.16;100169.84;5034360;28;20032;-85
2021/05/22 05:25:44;;;;;;;5.63;1.52;;;;;;;3.94;88.90;100182.28;5031498;28;20045;-84
2021/05/22 05:28:10;;;;;;;6.20;1.80;;;;;;;3.92;89.25;100180.75;5013298;28;20032;-84
2021/05/22 05:30:35;;;;;;;5.53;1.85;;;;;;;3.77;88.91;100164.44;5013268;28;20078;-84
2021/05/22 05:33:00;;;;;;;6.70;1.80;;;;;;;3.90;89.00;100169.44;5007971;28;20030;-84
2021/05/22 05:35:26;;;;;;;8.30;1.63;;;;;;;3.90;89.11;100170.25;5010993;28;20504;-85
2021/05/22 05:37:51;;;;;;;6.78;1.40;;;;;;;4.00;88.61;100182.69;5008557;28;20030;-84
2021/05/22 05:40:19;;;;;;;5.00;1.80;;;;;;;3.94;89.25;100176.97;5028909;28;20047;-85
2021/05/22 05:42:46;;;;;;;4.13;1.52;;;;;;;4.06;89.43;100180.25;5014814;28;20066;-84
2021/05/22 05:45:12;;;;;;;3.63;1.60;;;;;;;4.07;89.06;100178.44;5026289;28;20024;-83
2021/05/22 05:47:37;;;;;;;2.40;1.52;;;;;;;4.22;88.56;100200.91;5025781;28;20037;-84
2021/05/22 05:50:03;;;;;;;3.00;1.42;;;;;;;4.25;88.31;100197.94;5012762;28;20083;-84
2021/05/22 05:52:29;;;;;;;4.70;1.40;;;;;;;4.34;88.53;100202.38;5012554;28;20430;-82
2021/05/22 05:54:54;;;;;;;3.85;1.52;;;;;;;4.24;88.64;100176.81;5029074;28;20059;-84
2021/05/22 05:57:19;;;;;;;5.15;1.17;;;;;;;4.34;88.26;100196.19;5029881;28;20500;-85
2021/05/22 05:59:45;;;;;;;8.52;1.75;;;;;;;4.48;88.89;100209.03;5015059;28;20032;-84
2021/05/22 06:02:10;;;;;;;5.88;1.80;;;;;;;4.55;88.45;100209.25;5014852;28;20587;-84
2021/05/22 06:04:36;;;;;;;4.82;2.50;;;;;;;4.62;88.06;100218.31;5018301;28;20029;-85
2021/05/22 06:07:01;;;;;;;6.30;1.90;;;;;;;4.51;87.77;100179.44;5031001;28;20499;-84
2021/05/22 06:09:26;;;;;;;2.08;1.17;;;;;;;4.73;87.77;100223.41;5014647;28;20113;-84
2021/05/22 06:11:52;;;;;;;7.25;1.60;;;;;;;4.66;87.60;100209.03;5031104;28;20028;-85
2021/05/22 06:14:27;;;;;;;7.72;2.20;;;;;;;4.83;87.06;100221.50;5013944;28;20026;-85
2021/05/22 06:16:53;;;;;;;11.10;2.17;;;;;;;4.89;86.98;100213.91;5031986;28;20060;-83
2021/05/22 06:19:18;;;;;;;5.90;2.30;;;;;;;5.06;86.34;100223.72;5029463;28;20053;-84
2021/05/22 06:21:44;;;;;;;5.55;2.10;;;;;;;5.15;86.34;100217.47;5014941;28;20028;-84
2021/05/22 06:24:09;;;;;;;5.70;2.22;;;;;;;5.32;86.15;100230.91;5016316;28;20044;-84
2021/05/22 06:26:35;;;;;;;2.47;1.13;;;;;;;5.39;85.39;100229.31;5035016;28;20439;-84
2021/05/22 06:29:00;;;;;;;4.43;1.27;;;;;;;5.44;85.21;100235.03;5028678;28;20033;-84
2021/05/22 06:31:26;;;;;;;9.52;2.28;;;;;;;5.48;84.90;100247.06;5029840;28;20086;-84
2021/05/22 06:33:51;;;;;;;4.00;1.80;;;;;;;5.42;84.66;100234.34;5026933;28;20083;-84
2021/05/22 06:36:17;;;;;;;7.60;1.90;;;;;;;5.48;84.23;100241.72;5016422;28;20056;-84
2021/05/22 06:38:42;;;;;;;4.28;1.55;;;;;;;5.72;83.99;100260.56;5006891;28;20029;-85
2021/05/22 06:41:08;;;;;;;5.50;1.52;;;;;;;5.84;83.66;100252.28;5017702;28;20037;-84
2021/05/22 06:43:33;;;;;;;5.82;1.58;;;;;;;5.95;83.64;100249.38;5031705;28;20021;-84
2021/05/22 06:46:01;;;;;;;5.50;2.58;;;;;;;6.09;83.32;100250.66;5014911;28;20031;-85
2021/05/22 06:48:27;;;;;;;5.97;1.90;;;;;;;6.22;83.20;100264.38;5013475;28;20453;-85
2021/05/22 06:50:53;;;;;;;5.03;1.60;;;;;;;6.20;82.76;100238.84;5011928;28;20156;-85
2021/05/22 06:53:18;;;;;;;5.75;1.85;;;;;;;6.45;82.73;100272.66;5012935;28;20495;-85
2021/05/22 06:55:44;;;;;;;9.35;2.53;;;;;;;6.53;82.01;100267.34;5013649;28;20029;-84
2021/05/22 06:58:10;;;;;;;5.72;1.80;;;;;;;6.59;82.05;100258.69;5034553;28;20048;-84
2021/05/22 07:00:35;;;;;;;6.05;3.00;;;;;;;6.58;81.97;100267.69;5019842;28;20618;-84
2021/05/22 07:03:01;;;;;;;5.25;2.35;;;;;;;6.72;81.77;100270.72;5014440;28;20035;-84
2021/05/22 07:05:26;;;;;;;7.07;1.70;;;;;;;6.73;80.63;100275.94;5032102;28;20182;-84
2021/05/22 07:07:52;;;;;;;7.28;1.50;;;;;;;6.75;79.76;100259.75;5028759;28;20030;-84
2021/05/22 07:10:17;;;;;;;4.60;1.40;;;;;;;6.96;78.98;100265.47;5036528;28;20033;-84
2021/05/22 07:12:43;;;;;;;4.15;1.85;;;;;;;7.00;78.81;100248.09;5033340;28;20184;-85
2021/05/22 07:15:09;;;;;;;2.83;1.25;;;;;;;7.34;78.36;100273.84;5038283;28;20036;-85
2021/05/22 07:17:35;;;;;;;8.23;1.60;;;;;;;7.40;77.29;100270.50;5013458;28;20033;-84
2021/05/22 07:20:01;;;;;;;10.02;1.38;;;;;;;7.48;76.46;100257.13;5026970;28;20401;-85
2021/05/22 07:22:26;;;;;;;5.20;1.30;;;;;;;7.58;75.53;100261.47;5031789;28;20500;-85
2021/05/22 07:24:51;;;;;;;4.13;1.25;;;;;;;7.74;74.90;100269.47;5015159;28;20021;-85
2021/05/22 07:27:18;;;;;;;4.05;1.20;;;;;;;7.75;74.04;100268.47;5013731;28;20117;-84
2021/05/22 07:29:49;;;;;;;4.78;1.23;;;;;;;7.95;73.47;100279.66;5030593;28;20017;-85
2021/05/22 07:32:14;;;;;;;6.35;1.30;;;;;;;7.93;71.50;100269.09;5030110;28;20017;-83
2021/05/22 07:34:40;;;;;;;6.82;1.48;;;;;;;8.08;71.10;100282.63;5031613;28;20075;-85
2021/05/22 07:37:06;;;;;;;3.20;0.90;;;;;;;8.06;70.69;100273.94;5018866;28;20108;-85
2021/05/22 07:39:31;;;;;;;3.65;1.30;;;;;;;8.08;70.63;100274.59;5020556;28;20107;-85
2021/05/22 07:41:57;;;;;;;6.38;1.20;;;;;;;8.09;69.92;100272.75;5031175;28;20081;-82
2021/05/22 07:44:22;;;;;;;1.80;1.25;;;;;;;8.23;70.07;100290.81;5033998;28;20025;-84
2021/05/22 07:46:48;;;;;;;6.18;1.20;;;;;;;8.30;69.24;100294.44;5032899;28;20032;-85
2021/05/22 07:49:13;;;;;;;3.15;1.23;;;;;;;8.40;69.28;100299.66;5033701;28;20026;-84
2021/05/22 07:51:42;;;;;;;3.47;1.23;;;;;;;8.42;68.85;100292.28;5032958;28;20573;-86
2021/05/22 07:54:08;;;;;;;5.25;1.48;;;;;;;8.54;68.90;100304.28;5026803;28;20103;-84
2021/05/22 07:56:34;;;;;;;3.30;1.00;;;;;;;8.55;69.15;100291.72;5029118;28;20396;-85
2021/05/22 07:58:59;;;;;;;2.85;1.20;;;;;;;8.72;68.44;100297.84;5027239;28;20048;-84
2021/05/22 08:01:25;;;;;;;3.10;1.20;;;;;;;8.86;68.59;100288.22;5026951;28;20125;-85
2021/05/22 08:03:50;;;;;;;4.53;1.20;;;;;;;9.02;67.94;100304.19;5016375;28;20476;-85
2021/05/22 08:06:16;;;;;;;3.65;1.90;;;;;;;9.09;67.03;100298.97;5016668;28;20059;-85
2021/05/22 08:08:44;;;;;;;5.45;1.30;;;;;;;9.11;66.99;100297.78;5016693;28;20426;-84
2021/05/22 08:11:10;;;;;;;2.90;1.25;;;;;;;9.26;65.97;100297.84;5017235;28;20377;-85
2021/05/22 08:13:35;;;;;;;6.45;2.08;;;;;;;9.42;65.34;100307.63;5016030;28;20457;-84
2021/05/22 08:16:01;;;;;;;4.70;1.35;;;;;;;9.26;64.80;100313.94;5032747;28;20025;-84
2021/05/22 08:18:26;;;;;;;5.47;1.23;;;;;;;9.21;63.96;100300.25;5034464;28;20033;-84
2021/05/22 08:20:53;;;;;;;3.13;1.30;;;;;;;9.04;63.97;100296.81;5031763;28;20060;-84
2021/05/22 08:23:19;;;;;;;3.25;1.00;;;;;;;9.14;64.47;100310.84;5029526;28;20021;-84
2021/05/22 08:25:45;;;;;;;6.55;1.20;;;;;;;9.20;64.06;100302.06;5029803;28;20094;-84
2021/05/22 08:28:10;;;;;;;3.05;1.90;;;;;;;9.53;62.36;100315.25;5012568;28;20179;-85
2021/05/22 08:30:35;;;;;;;3.53;1.13;;;;;;;9.57;61.14;100305.00;5036583;28;20028;-86
2021/05/22 08:33:04;;;;;;;3.00;1.08;;;;;;;9.73;60.89;100318.28;5031079;28;20022;-84
2021/05/22 08:35:30;;;;;;;4.78;1.27;;;;;;;9.93;60.51;100320.47;5030364;28;20047;-84
2021/05/22 08:37:56;;;;;;;1.58;1.00;;;;;;;9.73;60.30;100318.28;5010893;28;20029;-84
2021/05/22 08:40:26;;;;;;;9.98;1.50;;;;;;;9.86;59.17;100326.53;5026947;28;20021;-85
2021/05/22 08:42:51;;;;;;;7.72;1.38;;;;;;;9.78;59.39;100321.25;5028916;28;20017;-84
2021/05/22 08:45:20;;;;;;;4.38;1.13;;;;;;;9.84;59.37;100308.94;5011252;28;20117;-85
2021/05/22 08:47:47;;;;;;;3.65;1.15;;;;;;;10.02;59.52;100314.81;5007083;28;20387;-84
2021/05/22 08:50:13;;;;;;;3.17;1.10;;;;;;;10.25;58.98;100328.19;5014081;28;20484;-84
2021/05/22 08:52:39;;;;;;;3.47;1.30;;;;;;;10.12;59.37;100315.38;5027647;28;20023;-83
2021/05/22 08:55:06;;;;;;;4.30;0.95;;;;;;;10.29;59.25;100318.78;5024522;28;20089;-85
2021/05/22 08:57:31;;;;;;;2.80;1.00;;;;;;;10.45;58.76;100331.22;5031447;28;20025;-83
2021/05/22 08:59:57;;;;;;;6.40;1.35;;;;;;;10.31;57.71;100330.16;5011394;28;20022;-83
2021/05/22 09:02:25;;;;;;;2.90;1.10;;;;;;;10.47;57.98;100334.53;5025651;28;21910;-82
2021/05/22 09:05:14;;;;;;;3.65;1.33;;;;;;;10.74;57.38;100335.72;5039532;28;20025;-83
2021/05/22 09:08:06;;;;;;;5.60;1.33;;;;;;;11.08;57.36;100338.81;5032274;28;20512;-84
2021/05/22 09:10:36;;;;;;;3.55;1.00;;;;;;;10.88;56.89;100342.09;5036824;28;20064;-85
2021/05/22 09:13:03;;;;;;;2.22;1.00;;;;;;;10.66;56.15;100338.50;5017248;28;20033;-83
2021/05/22 09:15:32;;;;;;;2.22;0.82;;;;;;;10.74;55.67;100329.50;5034524;28;20033;-85
2021/05/22 09:18:12;;;;;;;7.28;1.70;;;;;;;11.16;56.16;100341.38;5035992;28;20084;-84
2021/05/22 09:20:43;;;;;;;3.75;1.05;;;;;;;11.57;55.57;100340.78;5035179;28;20029;-85
2021/05/22 09:23:14;;;;;;;3.90;1.45;;;;;;;11.95;53.41;100335.13;5034234;28;20036;-84
2021/05/22 09:25:46;;;;;;;7.95;1.60;;;;;;;11.96;52.66;100336.78;5019319;28;20076;-85
2021/05/22 09:28:13;;;;;;;4.85;1.13;;;;;;;11.77;52.03;100322.94;5035632;28;20759;-85
2021/05/22 09:30:40;;;;;;;4.07;1.10;;;;;;;11.52;52.39;100327.91;5019212;28;20054;-85
2021/05/22 09:33:12;;;;;;;4.85;1.20;;;;;;;11.83;52.94;100332.13;5019139;28;20028;-84
2021/05/22 09:35:37;;;;;;;4.80;1.10;;;;;;;11.86;52.58;100302.94;5035983;28;20025;-86
2021/05/22 09:38:03;;;;;;;4.82;1.30;;;;;;;11.54;52.55;100308.88;5037121;28;20534;-85
2021/05/22 09:40:31;;;;;;;3.38;1.52;;;;;;;11.59;52.58;100323.41;5035303;28;20483;-84
2021/05/22 09:42:59;;;;;;;3.72;1.10;;;;;;;11.30;53.27;100324.38;5036025;28;20132;-84
2021/05/22 09:45:38;;;;;;;2.08;1.00;;;;;;;11.09;53.28;100337.81;5018038;28;20055;-84
2021/05/22 09:48:15;;;;;;;5.32;1.23;;;;;;;11.62;51.61;100333.81;5046465;28;20021;-84
2021/05/22 09:50:51;;;;;;;2.78;0.90;;;;;;;12.18;51.30;100327.66;5019964;28;20025;-84
2021/05/22 09:53:28;;;;;;;5.72;1.23;;;;;;;12.64;49.87;100324.38;5018862;28;20396;-85
2021/05/22 09:56:10;;;;;;;2.78;1.23;;;;;;;13.18;48.06;100334.38;5015393;28;20499;-85
2021/05/22 09:58:38;;;;;;;4.05;1.08;;;;;;;13.46;47.51;100332.59;5033937;28;20032;-85
2021/05/22 10:01:04;;;;;;;4.30;1.20;;;;;;;13.14;46.25;100333.09;5019011;28;20045;-85
2021/05/22 10:03:29;;;;;;;2.58;1.13;;;;;;;12.44;46.42;100334.25;5034744;28;20017;-84
2021/05/22 10:05:55;;;;;;;4.22;1.02;;;;;;;11.80;46.46;100287.56;5035160;28;20085;-85
2021/05/22 10:08:21;;;;;;;2.13;0.85;;;;;;;11.75;47.67;100348.41;5017864;28;20848;-85
2021/05/22 10:10:49;;;;;;;4.78;1.02;;;;;;;11.90;48.25;100337.59;5033496;28;20033;-85
2021/05/22 10:13:16;;;;;;;2.45;0.90;;;;;;;12.48;47.91;100346.28;5032273;28;20021;-85
2021/05/22 10:15:42;;;;;;;4.13;1.10;;;;;;;13.05;47.56;100336.19;5017165;28;20503;-86
2021/05/22 10:18:08;;;;;;;1.50;1.05;;;;;;;13.32;46.39;100329.03;5034361;28;20025;-86
2021/05/22 10:20:33;;;;;;;3.00;1.25;;;;;;;13.19;45.24;100335.19;5034455;28;20066;-85
2021/05/22 10:23:00;;;;;;;3.45;1.17;;;;;;;12.46;44.99;100295.28;5034136;28;20037;-86
2021/05/22 10:25:25;;;;;;;1.98;1.02;;;;;;;12.38;46.05;100343.94;5033744;28;20032;-85
2021/05/22 10:27:51;;;;;;;1.95;0.77;;;;;;;12.60;45.77;100344.72;5033735;28;20045;-85
2021/05/22 10:30:18;;;;;;;4.63;1.10;;;;;;;12.91;45.20;100305.59;5034854;28;20022;-84
2021/05/22 10:32:44;;;;;;;3.85;1.27;;;;;;;13.66;45.03;100329.91;5017420;28;20049;-84
2021/05/22 10:35:19;;;;;;;4.78;1.42;;;;;;;14.10;44.44;100347.38;5034525;28;20018;-84
2021/05/22 10:37:45;;;;;;;4.70;1.05;;;;;;;13.60;43.92;100343.22;5017554;28;20075;-85
2021/05/22 10:40:12;;;;;;;2.08;0.80;;;;;;;12.98;44.32;100336.16;5034250;28;20431;-85
2021/05/22 10:42:38;;;;;;;2.53;0.90;;;;;;;12.62;45.63;100336.41;5034081;28;20052;-85
2021/05/22 10:45:27;;;;;;;4.28;1.23;;;;;;;12.71;46.56;100338.75;5035245;28;20591;-85
2021/05/22 10:47:54;;;;;;;4.18;1.20;;;;;;;13.25;46.58;100337.06;5019239;28;20029;-85
2021/05/22 10:50:37;;;;;;;2.67;1.10;;;;;;;14.00;44.62;100335.13;5034408;28;20025;-85
2021/05/22 10:53:21;;;;;;;3.97;1.15;;;;;;;14.59;41.82;100341.50;5017562;28;20107;-86
2021/05/22 10:56:15;;;;;;;3.17;1.08;;;;;;;14.47;40.98;100340.44;5014271;28;20454;-86
2021/05/22 10:58:58;;;;;;;6.60;1.40;;;;;;;14.40;42.97;100350.47;5013256;28;20522;-86
2021/05/22 11:01:24;;;;;;;2.10;0.93;;;;;;;13.75;44.14;100348.41;5029389;28;20036;-86
2021/05/22 11:04:22;;;;;;;5.03;1.10;;;;;;;13.28;45.25;100338.56;5036839;28;20021;-86
2021/05/22 11:07:13;;;;;;;3.92;0.98;;;;;;;13.11;45.82;100352.41;5025556;28;20042;-84
2021/05/22 11:09:38;;;;;;;2.67;1.15;;;;;;;13.44;45.10;100359.78;5032570;28;20590;-85
2021/05/22 11:12:12;;;;;;;2.83;1.25;;;;;;;14.05;43.74;100351.56;5031953;28;20037;-85
2021/05/22 11:14:47;;;;;;;2.03;1.00;;;;;;;14.59;40.96;100349.63;5036759;28;20037;-84
2021/05/22 11:17:22;;;;;;;4.13;2.05;;;;;;;14.92;39.00;100352.22;5036568;28;20430;-85
2021/05/22 11:20:00;;;;;;;9.05;4.35;;;;;;;14.75;39.92;100356.44;5032248;28;20035;-85
2021/05/22 11:22:26;;;;;;;6.15;1.27;;;;;;;14.26;40.16;100352.34;5036355;28;20017;-84
2021/05/22 11:25:05;;;;;;;5.18;1.10;;;;;;;13.87;41.46;100356.75;5031414;28;20021;-84
2021/05/22 11:27:51;;;;;;;3.03;1.00;;;;;;;13.43;41.92;100362.72;5027891;28;20036;-84
2021/05/22 11:30:42;;;;;;;4.57;1.48;;;;;;;13.07;42.38;100361.94;5026346;28;20168;-84
2021/05/22 11:33:10;;;;;;;5.95;1.73;;;;;;;12.87;43.08;100361.84;5025324;28;20029;-84